sensor_id;sensor_type;location;lat;lon;timestamp;pressure;altitude;pressure_sealevel;temperature;humidity
72558;BME280;60583;50.094;8.748;2023-05-19T00:01:10;101236.13;;;11.08;64.35
72558;BME280;60583;50.094;8.748;2023-05-19T00:03:40;101216.16;;;11.04;63.75
72558;BME280;60583;50.094;8.748;2023-05-19T00:06:13;101218.94;;;10.73;64.56
72558;BME280;60583;50.094;8.748;2023-05-19T00:08:38;101229.25;;;10.76;64.99
72558;BME280;60583;50.094;8.748;2023-05-19T00:11:05;101234.81;;;10.89;65.01
72558;BME280;60583;50.094;8.748;2023-05-19T00:13:30;101236.75;;;10.95;64.12
72558;BME280;60583;50.094;8.748;2023-05-19T00:15:56;101231.22;;;10.82;65.03
72558;BME280;60583;50.094;8.748;2023-05-19T00:18:21;101225.28;;;10.72;65.98
72558;BME280;60583;50.094;8.748;2023-05-19T00:20:48;101219.75;;;10.73;66.05
72558;BME280;60583;50.094;8.748;2023-05-19T00:23:13;101204.00;;;10.64;65.42
72558;BME280;60583;50.094;8.748;2023-05-19T00:25:39;101225.38;;;10.78;66.08
72558;BME280;60583;50.094;8.748;2023-05-19T00:28:04;101228.16;;;10.85;65.45
72558;BME280;60583;50.094;8.748;2023-05-19T00:30:30;101226.56;;;10.76;65.68
72558;BME280;60583;50.094;8.748;2023-05-19T00:32:55;101233.88;;;10.82;64.38
72558;BME280;60583;50.094;8.748;2023-05-19T00:35:21;101229.53;;;10.81;64.37
72558;BME280;60583;50.094;8.748;2023-05-19T00:37:47;101207.72;;;10.77;64.05
72558;BME280;60583;50.094;8.748;2023-05-19T00:40:15;101217.34;;;10.64;65.42
72558;BME280;60583;50.094;8.748;2023-05-19T00:42:41;101205.94;;;10.70;65.31
72558;BME280;60583;50.094;8.748;2023-05-19T00:45:07;101228.31;;;10.69;64.93
72558;BME280;60583;50.094;8.748;2023-05-19T00:47:32;101216.59;;;10.70;64.99
72558;BME280;60583;50.094;8.748;2023-05-19T00:49:58;101201.69;;;10.61;64.60
72558;BME280;60583;50.094;8.748;2023-05-19T00:52:24;101223.03;;;10.61;65.25
72558;BME280;60583;50.094;8.748;2023-05-19T00:54:50;101204.66;;;10.66;64.59
72558;BME280;60583;50.094;8.748;2023-05-19T00:57:16;101195.41;;;10.54;64.82
72558;BME280;60583;50.094;8.748;2023-05-19T00:59:42;101194.81;;;10.44;64.98
72558;BME280;60583;50.094;8.748;2023-05-19T01:02:07;101202.97;;;10.65;64.79
72558;BME280;60583;50.094;8.748;2023-05-19T01:04:35;101210.63;;;10.68;64.80
72558;BME280;60583;50.094;8.748;2023-05-19T01:07:02;101164.47;;;10.45;64.77
72558;BME280;60583;50.094;8.748;2023-05-19T01:09:27;101209.97;;;10.66;65.41
72558;BME280;60583;50.094;8.748;2023-05-19T01:11:53;101209.72;;;10.75;64.74
72558;BME280;60583;50.094;8.748;2023-05-19T01:14:19;101194.81;;;10.66;64.50
72558;BME280;60583;50.094;8.748;2023-05-19T01:17:00;101201.72;;;10.75;64.27
72558;BME280;60583;50.094;8.748;2023-05-19T01:19:55;101190.41;;;10.73;64.56
72558;BME280;60583;50.094;8.748;2023-05-19T01:30:55;101178.03;;;10.58;64.76
72558;BME280;60583;50.094;8.748;2023-05-19T01:33:22;101192.69;;;10.62;64.47
72558;BME280;60583;50.094;8.748;2023-05-19T01:35:49;101193.34;;;10.41;65.79
72558;BME280;60583;50.094;8.748;2023-05-19T01:38:16;101196.41;;;10.53;65.74
72558;BME280;60583;50.094;8.748;2023-05-19T01:40:44;101171.63;;;10.30;66.39
72558;BME280;60583;50.094;8.748;2023-05-19T01:43:14;101200.16;;;10.44;65.84
72558;BME280;60583;50.094;8.748;2023-05-19T01:45:41;101189.78;;;10.49;66.72
72558;BME280;60583;50.094;8.748;2023-05-19T01:48:06;101200.84;;;10.38;67.47
72558;BME280;60583;50.094;8.748;2023-05-19T01:50:32;101204.88;;;10.34;67.06
72558;BME280;60583;50.094;8.748;2023-05-19T01:52:58;101199.91;;;10.31;66.89
72558;BME280;60583;50.094;8.748;2023-05-19T01:55:24;101215.44;;;10.27;67.35
72558;BME280;60583;50.094;8.748;2023-05-19T01:58:33;101182.28;;;9.91;68.23
72558;BME280;60583;50.094;8.748;2023-05-19T02:01:02;101198.38;;;10.05;67.98
72558;BME280;60583;50.094;8.748;2023-05-19T02:03:47;101197.38;;;10.06;67.97
72558;BME280;60583;50.094;8.748;2023-05-19T02:06:35;101188.13;;;9.94;67.96
72558;BME280;60583;50.094;8.748;2023-05-19T02:09:37;101208.03;;;10.14;68.46
72558;BME280;60583;50.094;8.748;2023-05-19T02:12:01;101191.97;;;9.92;68.29
72558;BME280;60583;50.094;8.748;2023-05-19T02:14:45;101205.19;;;10.08;67.65
72558;BME280;60583;50.094;8.748;2023-05-19T02:17:15;101207.88;;;10.00;68.68
72558;BME280;60583;50.094;8.748;2023-05-19T02:19:42;101209.50;;;10.09;68.94
72558;BME280;60583;50.094;8.748;2023-05-19T02:22:07;101206.34;;;10.05;68.46
72558;BME280;60583;50.094;8.748;2023-05-19T02:24:33;101210.69;;;10.06;68.18
72558;BME280;60583;50.094;8.748;2023-05-19T02:26:58;101201.75;;;9.99;68.55
72558;BME280;60583;50.094;8.748;2023-05-19T02:29:24;101205.44;;;9.90;69.40
72558;BME280;60583;50.094;8.748;2023-05-19T02:31:49;101185.84;;;9.83;68.69
72558;BME280;60583;50.094;8.748;2023-05-19T02:34:14;101207.00;;;10.07;68.10
72558;BME280;60583;50.094;8.748;2023-05-19T02:36:41;101200.41;;;9.95;68.04
72558;BME280;60583;50.094;8.748;2023-05-19T02:39:10;101207.25;;;9.90;68.59
72558;BME280;60583;50.094;8.748;2023-05-19T02:41:36;101194.75;;;9.98;68.26
72558;BME280;60583;50.094;8.748;2023-05-19T02:44:02;101197.03;;;10.09;68.10
72558;BME280;60583;50.094;8.748;2023-05-19T02:46:27;101198.34;;;10.13;68.06
72558;BME280;60583;50.094;8.748;2023-05-19T02:48:53;101173.09;;;10.01;68.21
72558;BME280;60583;50.094;8.748;2023-05-19T02:51:19;101163.22;;;9.79;68.75
72558;BME280;60583;50.094;8.748;2023-05-19T02:53:44;101183.75;;;10.01;68.80
72558;BME280;60583;50.094;8.748;2023-05-19T02:56:10;101188.53;;;10.06;68.96
72558;BME280;60583;50.094;8.748;2023-05-19T02:58:35;101161.47;;;9.94;67.89
72558;BME280;60583;50.094;8.748;2023-05-19T03:01:01;101187.41;;;10.00;68.74
72558;BME280;60583;50.094;8.748;2023-05-19T03:03:26;101163.88;;;9.81;68.26
72558;BME280;60583;50.094;8.748;2023-05-19T03:05:52;101164.47;;;9.91;68.06
72558;BME280;60583;50.094;8.748;2023-05-19T03:08:18;101173.56;;;9.74;68.09
72558;BME280;60583;50.094;8.748;2023-05-19T03:10:47;101181.13;;;9.93;68.54
72558;BME280;60583;50.094;8.748;2023-05-19T03:13:12;101175.25;;;9.98;68.01
72558;BME280;60583;50.094;8.748;2023-05-19T03:15:38;101153.06;;;9.75;68.61
72558;BME280;60583;50.094;8.748;2023-05-19T03:18:03;101146.13;;;9.66;68.31
72558;BME280;60583;50.094;8.748;2023-05-19T03:20:29;101161.81;;;9.91;68.00
72558;BME280;60583;50.094;8.748;2023-05-19T03:22:56;101189.19;;;9.77;69.09
72558;BME280;60583;50.094;8.748;2023-05-19T03:25:22;101175.53;;;9.80;68.83
72558;BME280;60583;50.094;8.748;2023-05-19T03:27:48;101185.44;;;9.94;68.54
72558;BME280;60583;50.094;8.748;2023-05-19T03:30:13;101171.56;;;9.76;68.64
72558;BME280;60583;50.094;8.748;2023-05-19T03:32:39;101182.88;;;9.70;69.05
72558;BME280;60583;50.094;8.748;2023-05-19T03:35:05;101139.69;;;9.52;69.44
72558;BME280;60583;50.094;8.748;2023-05-19T03:37:31;101178.06;;;9.74;69.70
72558;BME280;60583;50.094;8.748;2023-05-19T03:39:59;101192.88;;;9.68;70.44
72558;BME280;60583;50.094;8.748;2023-05-19T03:42:24;101129.81;;;9.30;70.32
72558;BME280;60583;50.094;8.748;2023-05-19T03:44:50;101187.91;;;9.65;69.95
72558;BME280;60583;50.094;8.748;2023-05-19T03:47:15;101169.47;;;9.55;69.72
72558;BME280;60583;50.094;8.748;2023-05-19T03:49:41;101200.50;;;9.79;69.82
72558;BME280;60583;50.094;8.748;2023-05-19T03:52:07;101124.97;;;9.33;69.57
72558;BME280;60583;50.094;8.748;2023-05-19T03:54:34;101193.16;;;9.81;68.47
72558;BME280;60583;50.094;8.748;2023-05-19T03:57:00;101197.16;;;9.77;68.93
72558;BME280;60583;50.094;8.748;2023-05-19T03:59:26;101194.16;;;9.80;68.93
72558;BME280;60583;50.094;8.748;2023-05-19T04:01:52;101199.34;;;9.82;69.15
72558;BME280;60583;50.094;8.748;2023-05-19T04:04:17;101196.09;;;9.94;69.01
72558;BME280;60583;50.094;8.748;2023-05-19T04:06:42;101198.47;;;9.89;69.38
72558;BME280;60583;50.094;8.748;2023-05-19T04:09:13;101194.81;;;9.82;70.71
72558;BME280;60583;50.094;8.748;2023-05-19T04:11:39;101178.84;;;9.82;69.37
72558;BME280;60583;50.094;8.748;2023-05-19T04:14:05;101192.13;;;9.90;69.86
72558;BME280;60583;50.094;8.748;2023-05-19T04:16:31;101190.59;;;9.96;69.34
72558;BME280;60583;50.094;8.748;2023-05-19T04:18:57;101169.88;;;9.75;69.40
72558;BME280;60583;50.094;8.748;2023-05-19T04:21:22;101195.44;;;9.92;69.18
72558;BME280;60583;50.094;8.748;2023-05-19T04:23:48;101196.41;;;9.99;69.22
72558;BME280;60583;50.094;8.748;2023-05-19T04:26:13;101187.59;;;9.99;69.32
72558;BME280;60583;50.094;8.748;2023-05-19T04:28:39;101179.41;;;10.00;69.57
72558;BME280;60583;50.094;8.748;2023-05-19T04:31:07;101205.78;;;9.87;70.33
72558;BME280;60583;50.094;8.748;2023-05-19T04:33:36;101205.41;;;9.98;69.95
72558;BME280;60583;50.094;8.748;2023-05-19T04:36:01;101175.25;;;9.67;69.90
72558;BME280;60583;50.094;8.748;2023-05-19T04:38:30;101204.59;;;9.90;70.35
72558;BME280;60583;50.094;8.748;2023-05-19T04:40:55;101199.94;;;9.92;70.01
72558;BME280;60583;50.094;8.748;2023-05-19T04:43:21;101206.63;;;9.88;70.25
72558;BME280;60583;50.094;8.748;2023-05-19T04:45:47;101204.59;;;9.90;70.02
72558;BME280;60583;50.094;8.748;2023-05-19T04:48:14;101188.88;;;9.72;70.53
72558;BME280;60583;50.094;8.748;2023-05-19T04:50:40;101194.31;;;9.87;69.61
72558;BME280;60583;50.094;8.748;2023-05-19T04:53:13;101171.91;;;9.73;70.27
72558;BME280;60583;50.094;8.748;2023-05-19T04:55:39;101209.06;;;9.97;70.83
72558;BME280;60583;50.094;8.748;2023-05-19T04:58:04;101209.94;;;9.90;70.09
72558;BME280;60583;50.094;8.748;2023-05-19T05:00:30;101219.09;;;9.87;70.97
72558;BME280;60583;50.094;8.748;2023-05-19T05:02:56;101211.16;;;9.79;71.44
72558;BME280;60583;50.094;8.748;2023-05-19T05:05:22;101218.41;;;9.93;70.23
72558;BME280;60583;50.094;8.748;2023-05-19T05:07:48;101193.44;;;9.94;69.89
72558;BME280;60583;50.094;8.748;2023-05-19T05:10:13;101204.00;;;10.10;70.53
72558;BME280;60583;50.094;8.748;2023-05-19T05:12:39;101216.25;;;10.27;69.85
72558;BME280;60583;50.094;8.748;2023-05-19T05:15:05;101217.50;;;10.40;69.90
72558;BME280;60583;50.094;8.748;2023-05-19T05:17:32;101216.16;;;10.44;68.88
72558;BME280;60583;50.094;8.748;2023-05-19T05:19:58;101169.28;;;10.27;68.79
72558;BME280;60583;50.094;8.748;2023-05-19T05:22:23;101211.16;;;10.63;67.96
72558;BME280;60583;50.094;8.748;2023-05-19T05:24:49;101213.25;;;10.76;68.19
72558;BME280;60583;50.094;8.748;2023-05-19T05:27:15;101187.72;;;10.59;68.21
72558;BME280;60583;50.094;8.748;2023-05-19T05:29:43;101202.84;;;10.81;67.96
72558;BME280;60583;50.094;8.748;2023-05-19T05:32:09;101160.00;;;10.60;68.60
72558;BME280;60583;50.094;8.748;2023-05-19T05:34:34;101201.75;;;10.90;66.59
72558;BME280;60583;50.094;8.748;2023-05-19T05:37:01;101191.69;;;10.77;67.34
72558;BME280;60583;50.094;8.748;2023-05-19T05:39:27;101195.91;;;10.95;67.44
72558;BME280;60583;50.094;8.748;2023-05-19T05:41:52;101202.34;;;11.00;67.17
72558;BME280;60583;50.094;8.748;2023-05-19T05:44:18;101193.63;;;11.21;67.01
72558;BME280;60583;50.094;8.748;2023-05-19T05:46:43;101179.94;;;11.24;65.93
72558;BME280;60583;50.094;8.748;2023-05-19T05:49:10;101205.25;;;11.42;66.21
72558;BME280;60583;50.094;8.748;2023-05-19T05:51:36;101165.19;;;11.13;65.14
72558;BME280;60583;50.094;8.748;2023-05-19T05:54:05;101203.69;;;11.33;66.23
72558;BME280;60583;50.094;8.748;2023-05-19T05:56:30;101200.00;;;11.34;65.69
72558;BME280;60583;50.094;8.748;2023-05-19T05:58:58;101190.88;;;11.58;65.67
72558;BME280;60583;50.094;8.748;2023-05-19T06:01:23;101172.09;;;11.51;63.71
72558;BME280;60583;50.094;8.748;2023-05-19T06:03:49;101201.22;;;11.90;63.55
72558;BME280;60583;50.094;8.748;2023-05-19T06:06:14;101186.47;;;11.80;64.06
72558;BME280;60583;50.094;8.748;2023-05-19T06:08:40;101178.22;;;11.96;62.74
72558;BME280;60583;50.094;8.748;2023-05-19T06:11:05;101192.28;;;12.19;63.03
72558;BME280;60583;50.094;8.748;2023-05-19T06:13:37;101181.16;;;12.15;62.85
72558;BME280;60583;50.094;8.748;2023-05-19T06:16:03;101150.06;;;12.14;61.23
72558;BME280;60583;50.094;8.748;2023-05-19T06:18:29;101190.91;;;12.65;61.16
72558;BME280;60583;50.094;8.748;2023-05-19T06:20:54;101191.97;;;12.50;61.15
72558;BME280;60583;50.094;8.748;2023-05-19T06:23:20;101195.88;;;12.47;61.90
72558;BME280;60583;50.094;8.748;2023-05-19T06:25:45;101190.00;;;12.37;62.13
72558;BME280;60583;50.094;8.748;2023-05-19T06:28:11;101187.28;;;12.31;62.31
72558;BME280;60583;50.094;8.748;2023-05-19T06:30:36;101182.03;;;12.44;61.67
72558;BME280;60583;50.094;8.748;2023-05-19T06:33:02;101185.41;;;12.52;60.82
72558;BME280;60583;50.094;8.748;2023-05-19T06:35:29;101197.50;;;12.27;61.24
72558;BME280;60583;50.094;8.748;2023-05-19T06:37:55;101167.59;;;12.17;61.98
72558;BME280;60583;50.094;8.748;2023-05-19T06:40:21;101199.94;;;12.22;62.20
72558;BME280;60583;50.094;8.748;2023-05-19T06:42:46;101166.81;;;12.44;62.74
72558;BME280;60583;50.094;8.748;2023-05-19T06:45:12;101199.19;;;12.70;61.35
72558;BME280;60583;50.094;8.748;2023-05-19T06:47:37;101198.84;;;12.80;61.47
72558;BME280;60583;50.094;8.748;2023-05-19T06:50:05;101187.09;;;13.02;60.75
72558;BME280;60583;50.094;8.748;2023-05-19T06:52:30;101161.03;;;12.90;61.05
72558;BME280;60583;50.094;8.748;2023-05-19T06:54:56;101202.19;;;13.37;60.06
72558;BME280;60583;50.094;8.748;2023-05-19T06:57:21;101176.84;;;13.40;60.15
72558;BME280;60583;50.094;8.748;2023-05-19T06:59:47;101183.31;;;13.52;59.49
72558;BME280;60583;50.094;8.748;2023-05-19T07:02:14;101179.22;;;13.56;59.18
72558;BME280;60583;50.094;8.748;2023-05-19T07:04:40;101178.72;;;13.80;58.43
72558;BME280;60583;50.094;8.748;2023-05-19T07:07:05;101166.22;;;13.53;58.79
72558;BME280;60583;50.094;8.748;2023-05-19T07:09:31;101178.31;;;13.42;59.26
72558;BME280;60583;50.094;8.748;2023-05-19T07:11:56;101179.88;;;13.65;59.68
72558;BME280;60583;50.094;8.748;2023-05-19T07:14:22;101176.19;;;13.72;59.98
72558;BME280;60583;50.094;8.748;2023-05-19T07:16:47;101183.13;;;14.01;59.68
72558;BME280;60583;50.094;8.748;2023-05-19T07:19:13;101152.47;;;14.30;58.57
72558;BME280;60583;50.094;8.748;2023-05-19T07:21:38;101170.50;;;14.62;57.39
72558;BME280;60583;50.094;8.748;2023-05-19T07:24:03;101166.38;;;14.79;55.17
72558;BME280;60583;50.094;8.748;2023-05-19T07:26:29;101170.72;;;14.80;54.99
72558;BME280;60583;50.094;8.748;2023-05-19T07:28:54;101176.69;;;14.76;55.00
72558;BME280;60583;50.094;8.748;2023-05-19T07:31:20;101154.50;;;14.15;55.73
72558;BME280;60583;50.094;8.748;2023-05-19T07:33:45;101172.63;;;14.06;56.19
72558;BME280;60583;50.094;8.748;2023-05-19T07:36:11;101161.75;;;14.27;56.25
72558;BME280;60583;50.094;8.748;2023-05-19T07:38:36;101144.44;;;14.43;56.51
72558;BME280;60583;50.094;8.748;2023-05-19T07:41:05;101159.34;;;14.72;55.13
72558;BME280;60583;50.094;8.748;2023-05-19T07:43:30;101149.00;;;15.01;56.55
72558;BME280;60583;50.094;8.748;2023-05-19T07:45:56;101146.50;;;15.19;56.46
72558;BME280;60583;50.094;8.748;2023-05-19T07:48:22;101135.75;;;15.13;54.65
72558;BME280;60583;50.094;8.748;2023-05-19T07:50:50;101127.47;;;15.27;54.54
72558;BME280;60583;50.094;8.748;2023-05-19T07:53:17;101111.91;;;15.36;54.75
72558;BME280;60583;50.094;8.748;2023-05-19T07:55:43;101132.97;;;15.52;54.43
72558;BME280;60583;50.094;8.748;2023-05-19T07:58:08;101129.09;;;15.86;54.57
72558;BME280;60583;50.094;8.748;2023-05-19T08:00:34;101113.41;;;15.83;52.22
72558;BME280;60583;50.094;8.748;2023-05-19T08:03:00;101127.47;;;15.85;53.73
72558;BME280;60583;50.094;8.748;2023-05-19T08:05:26;101138.91;;;16.12;52.91
72558;BME280;60583;50.094;8.748;2023-05-19T08:07:52;101130.13;;;16.54;54.90
72558;BME280;60583;50.094;8.748;2023-05-19T08:10:17;101122.44;;;16.82;53.13
72558;BME280;60583;50.094;8.748;2023-05-19T08:12:42;101120.50;;;17.14;53.02
72558;BME280;60583;50.094;8.748;2023-05-19T08:15:11;101121.25;;;17.21;49.81
72558;BME280;60583;50.094;8.748;2023-05-19T08:17:37;101103.25;;;17.33;49.94
72558;BME280;60583;50.094;8.748;2023-05-19T08:20:03;101084.97;;;17.17;49.07
72558;BME280;60583;50.094;8.748;2023-05-19T08:22:30;101122.72;;;17.35;48.34
72558;BME280;60583;50.094;8.748;2023-05-19T08:24:56;101124.19;;;17.56;48.77
72558;BME280;60583;50.094;8.748;2023-05-19T08:27:22;101116.47;;;17.59;49.30
72558;BME280;60583;50.094;8.748;2023-05-19T08:29:47;101123.19;;;17.87;47.96
72558;BME280;60583;50.094;8.748;2023-05-19T08:32:13;101120.50;;;17.98;46.47
72558;BME280;60583;50.094;8.748;2023-05-19T08:34:38;101109.09;;;18.26;47.50
72558;BME280;60583;50.094;8.748;2023-05-19T08:37:03;101104.03;;;18.48;46.36
72558;BME280;60583;50.094;8.748;2023-05-19T08:39:29;101108.66;;;18.29;44.80
72558;BME280;60583;50.094;8.748;2023-05-19T08:41:56;101118.06;;;17.97;46.44
72558;BME280;60583;50.094;8.748;2023-05-19T08:44:22;101097.44;;;18.14;43.51
72558;BME280;60583;50.094;8.748;2023-05-19T08:46:48;101091.94;;;17.79;44.63
72558;BME280;60583;50.094;8.748;2023-05-19T08:49:18;101091.00;;;18.15;45.44
72558;BME280;60583;50.094;8.748;2023-05-19T08:51:55;101049.00;;;18.30;45.23
72558;BME280;60583;50.094;8.748;2023-05-19T08:54:24;101084.06;;;18.83;44.25
72558;BME280;60583;50.094;8.748;2023-05-19T08:56:54;101087.81;;;19.05;43.42
72558;BME280;60583;50.094;8.748;2023-05-19T08:59:21;101067.97;;;18.88;42.47
72558;BME280;60583;50.094;8.748;2023-05-19T09:01:47;101068.03;;;19.17;43.03
72558;BME280;60583;50.094;8.748;2023-05-19T09:04:14;101085.94;;;18.60;41.62
72558;BME280;60583;50.094;8.748;2023-05-19T09:06:40;101085.03;;;18.77;43.02
72558;BME280;60583;50.094;8.748;2023-05-19T09:09:06;101086.59;;;18.32;41.11
72558;BME280;60583;50.094;8.748;2023-05-19T09:11:33;101064.84;;;18.38;42.17
72558;BME280;60583;50.094;8.748;2023-05-19T09:14:01;101074.03;;;18.37;41.30
72558;BME280;60583;50.094;8.748;2023-05-19T09:16:27;101068.56;;;18.67;41.27
72558;BME280;60583;50.094;8.748;2023-05-19T09:18:54;101078.66;;;18.83;40.21
72558;BME280;60583;50.094;8.748;2023-05-19T09:21:29;101053.59;;;19.11;39.86
72558;BME280;60583;50.094;8.748;2023-05-19T09:24:05;101059.09;;;19.39;38.50
72558;BME280;60583;50.094;8.748;2023-05-19T09:26:41;101044.34;;;19.47;38.16
72558;BME280;60583;50.094;8.748;2023-05-19T09:29:11;101054.91;;;19.60;37.33
72558;BME280;60583;50.094;8.748;2023-05-19T09:31:36;101064.84;;;19.43;37.23
72558;BME280;60583;50.094;8.748;2023-05-19T09:34:02;101023.84;;;19.62;38.23
72558;BME280;60583;50.094;8.748;2023-05-19T09:36:28;101054.25;;;20.14;37.88
72558;BME280;60583;50.094;8.748;2023-05-19T09:38:54;101055.38;;;19.85;37.08
72558;BME280;60583;50.094;8.748;2023-05-19T09:41:19;101048.09;;;20.02;38.21
72558;BME280;60583;50.094;8.748;2023-05-19T09:43:53;101056.38;;;19.96;37.37
72558;BME280;60583;50.094;8.748;2023-05-19T09:46:23;101051.34;;;19.71;38.21
72558;BME280;60583;50.094;8.748;2023-05-19T09:48:56;101046.03;;;19.93;37.18
72558;BME280;60583;50.094;8.748;2023-05-19T09:51:22;101031.38;;;20.05;37.20
72558;BME280;60583;50.094;8.748;2023-05-19T09:53:48;101029.59;;;20.27;36.99
72558;BME280;60583;50.094;8.748;2023-05-19T09:56:13;101036.78;;;20.72;37.35
72558;BME280;60583;50.094;8.748;2023-05-19T09:58:41;101032.28;;;20.61;37.03
72558;BME280;60583;50.094;8.748;2023-05-19T10:01:07;101015.56;;;19.69;37.51
72558;BME280;60583;50.094;8.748;2023-05-19T10:03:33;101022.91;;;20.02;37.02
72558;BME280;60583;50.094;8.748;2023-05-19T10:06:00;101022.22;;;19.78;37.54
72558;BME280;60583;50.094;8.748;2023-05-19T10:08:27;101016.03;;;20.11;37.58
72558;BME280;60583;50.094;8.748;2023-05-19T10:10:54;101028.38;;;20.35;36.92
72558;BME280;60583;50.094;8.748;2023-05-19T10:13:21;101023.63;;;20.25;36.68
72558;BME280;60583;50.094;8.748;2023-05-19T10:15:48;101019.66;;;20.16;37.08
72558;BME280;60583;50.094;8.748;2023-05-19T10:18:14;101027.16;;;20.26;36.66
72558;BME280;60583;50.094;8.748;2023-05-19T10:20:42;101017.16;;;20.26;36.43
72558;BME280;60583;50.094;8.748;2023-05-19T10:23:08;101020.25;;;19.34;37.77
72558;BME280;60583;50.094;8.748;2023-05-19T10:25:34;101019.63;;;19.83;39.04
72558;BME280;60583;50.094;8.748;2023-05-19T10:28:10;101020.56;;;20.55;37.88
72558;BME280;60583;50.094;8.748;2023-05-19T10:30:43;101017.41;;;21.02;35.17
72558;BME280;60583;50.094;8.748;2023-05-19T10:33:11;101019.03;;;21.19;34.99
72558;BME280;60583;50.094;8.748;2023-05-19T10:38:44;101007.94;;;21.47;35.71
72558;BME280;60583;50.094;8.748;2023-05-19T10:46:26;101003.09;;;22.03;34.96
72558;BME280;60583;50.094;8.748;2023-05-19T10:48:53;100985.13;;;21.97;36.42
72558;BME280;60583;50.094;8.748;2023-05-19T10:51:18;100980.84;;;21.04;35.92
72558;BME280;60583;50.094;8.748;2023-05-19T10:53:44;100996.13;;;20.33;36.85
72558;BME280;60583;50.094;8.748;2023-05-19T10:56:30;100993.38;;;19.84;37.57
72558;BME280;60583;50.094;8.748;2023-05-19T10:58:58;100977.81;;;20.79;37.42
72558;BME280;60583;50.094;8.748;2023-05-19T11:01:29;100984.97;;;20.68;37.01
72558;BME280;60583;50.094;8.748;2023-05-19T11:03:55;100975.50;;;20.49;37.58
72558;BME280;60583;50.094;8.748;2023-05-19T11:06:28;100984.50;;;21.36;36.24
72558;BME280;60583;50.094;8.748;2023-05-19T11:11:22;100970.97;;;21.68;35.62
72558;BME280;60583;50.094;8.748;2023-05-19T11:13:52;100970.63;;;21.59;34.65
72558;BME280;60583;50.094;8.748;2023-05-19T11:16:29;100983.53;;;22.38;36.26
72558;BME280;60583;50.094;8.748;2023-05-19T11:18:58;100982.44;;;22.75;34.62
72558;BME280;60583;50.094;8.748;2023-05-19T11:21:23;100967.28;;;22.95;34.25
72558;BME280;60583;50.094;8.748;2023-05-19T11:23:50;100967.06;;;22.59;33.27
72558;BME280;60583;50.094;8.748;2023-05-19T11:26:39;100982.09;;;21.67;35.49
72558;BME280;60583;50.094;8.748;2023-05-19T11:29:05;100949.66;;;21.82;35.83
72558;BME280;60583;50.094;8.748;2023-05-19T11:31:32;100960.00;;;22.16;35.77
72558;BME280;60583;50.094;8.748;2023-05-19T11:33:58;100961.34;;;23.03;34.59
72558;BME280;60583;50.094;8.748;2023-05-19T11:36:23;100937.91;;;22.97;35.23
72558;BME280;60583;50.094;8.748;2023-05-19T11:38:49;100910.97;;;22.90;34.46
72558;BME280;60583;50.094;8.748;2023-05-19T11:41:15;100955.47;;;22.27;35.39
72558;BME280;60583;50.094;8.748;2023-05-19T11:43:40;100962.00;;;21.68;35.90
72558;BME280;60583;50.094;8.748;2023-05-19T11:46:08;100953.97;;;22.09;37.06
72558;BME280;60583;50.094;8.748;2023-05-19T11:48:34;100947.75;;;22.14;36.44
72558;BME280;60583;50.094;8.748;2023-05-19T11:51:00;100916.28;;;21.54;36.79
72558;BME280;60583;50.094;8.748;2023-05-19T11:53:25;100936.94;;;22.19;36.45
72558;BME280;60583;50.094;8.748;2023-05-19T11:56:02;100938.81;;;23.22;33.98
72558;BME280;60583;50.094;8.748;2023-05-19T11:58:27;100913.59;;;22.28;34.15
72558;BME280;60583;50.094;8.748;2023-05-19T12:00:53;100920.16;;;22.32;35.48
72558;BME280;60583;50.094;8.748;2023-05-19T12:03:21;100913.88;;;22.73;35.68
72558;BME280;60583;50.094;8.748;2023-05-19T12:05:52;100945.44;;;21.96;35.60
72558;BME280;60583;50.094;8.748;2023-05-19T12:08:17;100952.63;;;21.53;35.68
72558;BME280;60583;50.094;8.748;2023-05-19T12:10:46;100924.38;;;21.81;35.38
72558;BME280;60583;50.094;8.748;2023-05-19T12:13:12;100909.84;;;21.66;36.59
72558;BME280;60583;50.094;8.748;2023-05-19T12:15:37;100939.59;;;21.24;38.50
72558;BME280;60583;50.094;8.748;2023-05-19T12:18:03;100936.75;;;21.40;37.16
72558;BME280;60583;50.094;8.748;2023-05-19T12:20:29;100937.88;;;20.96;36.52
72558;BME280;60583;50.094;8.748;2023-05-19T12:23:00;100929.19;;;21.16;36.72
72558;BME280;60583;50.094;8.748;2023-05-19T12:25:25;100932.00;;;22.16;36.75
72558;BME280;60583;50.094;8.748;2023-05-19T12:27:56;100935.97;;;22.40;34.02
72558;BME280;60583;50.094;8.748;2023-05-19T12:30:26;100946.31;;;22.01;33.79
72558;BME280;60583;50.094;8.748;2023-05-19T12:32:53;100938.94;;;21.70;34.92
72558;BME280;60583;50.094;8.748;2023-05-19T12:35:24;100931.06;;;22.00;34.60
72558;BME280;60583;50.094;8.748;2023-05-19T12:37:50;100912.19;;;21.84;35.59
72558;BME280;60583;50.094;8.748;2023-05-19T12:40:15;100910.88;;;21.86;37.38
72558;BME280;60583;50.094;8.748;2023-05-19T12:42:43;100936.84;;;21.77;36.49
72558;BME280;60583;50.094;8.748;2023-05-19T12:45:09;100930.38;;;21.51;35.28
72558;BME280;60583;50.094;8.748;2023-05-19T12:47:34;100937.03;;;21.39;36.04
72558;BME280;60583;50.094;8.748;2023-05-19T12:50:01;100927.28;;;21.16;35.57
72558;BME280;60583;50.094;8.748;2023-05-19T12:52:28;100928.22;;;20.83;36.13
72558;BME280;60583;50.094;8.748;2023-05-19T12:55:01;100926.00;;;21.02;37.38
72558;BME280;60583;50.094;8.748;2023-05-19T12:57:29;100908.41;;;21.26;36.51
72558;BME280;60583;50.094;8.748;2023-05-19T13:00:14;100875.09;;;20.61;38.44
72558;BME280;60583;50.094;8.748;2023-05-19T13:03:06;100933.16;;;20.26;38.19
72558;BME280;60583;50.094;8.748;2023-05-19T13:05:37;100900.56;;;20.21;38.28
72558;BME280;60583;50.094;8.748;2023-05-19T13:08:07;100910.69;;;20.48;38.60
72558;BME280;60583;50.094;8.748;2023-05-19T13:10:34;100907.69;;;20.27;38.53
72558;BME280;60583;50.094;8.748;2023-05-19T13:13:01;100907.81;;;20.54;38.79